createdAt,value
2017-10-16T00:00:46.365Z,1008.7
2017-10-16T00:01:56.760Z,1008.69
2017-10-16T00:03:06.862Z,1008.69
2017-10-16T00:04:17.262Z,1008.7
2017-10-16T00:05:27.690Z,1008.68
2017-10-16T00:06:38.089Z,1008.69
2017-10-16T00:07:48.159Z,1008.72
2017-10-16T00:08:58.551Z,1008.74
2017-10-16T00:10:08.951Z,1008.73
2017-10-16T00:11:19.338Z,1008.79
2017-10-16T00:12:29.408Z,1008.76
2017-10-16T00:13:39.812Z,1008.74
2017-10-16T00:14:50.216Z,1008.74
2017-10-16T00:16:00.631Z,1008.76
2017-10-16T00:17:11.044Z,1008.74
2017-10-16T00:18:21.445Z,1008.73
2017-10-16T00:19:31.853Z,1008.73
2017-10-16T00:20:41.926Z,1008.76
2017-10-16T00:21:52.329Z,1008.76
2017-10-16T00:23:02.072Z,1008.77
2017-10-16T00:24:12.467Z,1008.79
2017-10-16T00:25:22.900Z,1008.8
2017-10-16T00:26:33.317Z,1008.78
2017-10-16T00:27:43.378Z,1008.77
2017-10-16T00:28:53.884Z,1008.77
2017-10-16T00:30:04.291Z,1008.77
2017-10-16T00:31:14.678Z,1008.76
2017-10-16T00:32:25.085Z,1008.76
2017-10-16T00:33:35.158Z,1008.74
2017-10-16T00:34:45.564Z,1008.76
2017-10-16T00:35:55.642Z,1008.76
2017-10-16T00:37:06.043Z,1008.75
2017-10-16T00:38:16.499Z,1008.78
2017-10-16T00:39:26.571Z,1008.79
2017-10-16T00:40:36.967Z,1008.78
2017-10-16T00:41:47.376Z,1008.78
2017-10-16T00:42:57.780Z,1008.84
2017-10-16T00:44:08.169Z,1008.85
2017-10-16T00:45:18.594Z,1008.87
2017-10-16T00:46:28.678Z,1008.84
2017-10-16T00:47:39.089Z,1008.85
2017-10-16T00:48:49.404Z,1008.84
2017-10-16T00:49:59.792Z,1008.85
2017-10-16T00:51:10.301Z,1008.83
2017-10-16T00:52:20.699Z,1008.82
2017-10-16T00:53:31.141Z,1008.85
2017-10-16T00:54:41.218Z,1008.83
2017-10-16T00:55:51.670Z,1008.81
2017-10-16T00:57:02.066Z,1008.82
2017-10-16T00:58:12.465Z,1008.8
2017-10-16T00:59:22.534Z,1008.83
2017-10-16T01:00:32.947Z,1008.84
2017-10-16T01:01:43.358Z,1008.84
2017-10-16T01:02:53.760Z,1008.84
2017-10-16T01:04:03.824Z,1008.83
2017-10-16T01:05:14.224Z,1008.8
2017-10-16T01:06:23.971Z,1008.83
2017-10-16T01:07:34.376Z,1008.85
2017-10-16T01:08:44.786Z,1008.81
2017-10-16T01:09:55.195Z,1008.83
2017-10-16T01:11:05.608Z,1008.9
2017-10-16T01:12:15.669Z,1008.87
2017-10-16T01:13:26.131Z,1008.89
2017-10-16T01:14:36.544Z,1008.86
2017-10-16T01:15:46.950Z,1008.83
2017-10-16T01:16:57.358Z,1008.85
2017-10-16T01:18:07.430Z,1008.81
2017-10-16T01:19:17.829Z,1008.83
2017-10-16T01:20:28.228Z,1008.81
2017-10-16T01:21:38.622Z,1008.83
2017-10-16T01:22:48.689Z,1008.86
2017-10-16T01:23:59.084Z,1008.87
2017-10-16T01:25:09.519Z,1008.88
2017-10-16T01:26:19.593Z,1008.9
2017-10-16T01:27:29.992Z,1008.9
2017-10-16T01:28:40.045Z,1008.88
2017-10-16T01:29:50.123Z,1008.87
2017-10-16T01:31:00.184Z,1008.9
2017-10-16T01:32:10.582Z,1008.9
2017-10-16T01:33:20.661Z,1008.87
2017-10-16T01:34:31.055Z,1008.84
2017-10-16T01:35:41.491Z,1008.84
2017-10-16T01:36:51.943Z,1008.84
2017-10-16T01:38:02.009Z,1008.88
2017-10-16T01:39:12.400Z,1008.84
2017-10-16T01:40:22.802Z,1008.82
2017-10-16T01:41:33.225Z,1008.87
2017-10-16T01:42:43.683Z,1008.87
2017-10-16T01:43:54.086Z,1008.84
2017-10-16T01:45:04.487Z,1008.85
2017-10-16T01:46:14.556Z,1008.84
2017-10-16T01:47:24.955Z,1008.84
2017-10-16T01:48:35.044Z,1008.82
2017-10-16T01:49:45.112Z,1008.82
2017-10-16T01:50:55.174Z,1008.79
2017-10-16T01:52:05.584Z,1008.81
2017-10-16T01:53:15.983Z,1008.78
2017-10-16T01:54:25.709Z,1008.76
2017-10-16T01:55:36.118Z,1008.75
2017-10-16T01:56:46.526Z,1008.72
2017-10-16T01:57:56.928Z,1008.71
2017-10-16T01:59:07.009Z,1008.71
2017-10-16T02:00:17.461Z,1008.72
2017-10-16T02:01:27.549Z,1008.74
2017-10-16T02:02:37.952Z,1008.75
2017-10-16T02:03:47.702Z,1008.73
2017-10-16T02:04:57.765Z,1008.69
2017-10-16T02:06:07.888Z,1008.73
2017-10-16T02:07:18.299Z,1008.75
2017-10-16T02:08:28.380Z,1008.75
2017-10-16T02:09:38.448Z,1008.72
2017-10-16T02:10:48.847Z,1008.7
2017-10-16T02:11:59.305Z,1008.75
2017-10-16T02:13:09.696Z,1008.73
2017-10-16T02:14:20.106Z,1008.73
2017-10-16T02:15:30.185Z,1008.76
2017-10-16T02:16:40.583Z,1008.75
2017-10-16T02:17:50.995Z,1008.76
2017-10-16T02:19:01.390Z,1008.76
2017-10-16T02:20:11.801Z,1008.78
2017-10-16T02:21:21.863Z,1008.76
2017-10-16T02:22:32.266Z,1008.8
2017-10-16T02:23:42.328Z,1008.85
2017-10-16T02:24:52.405Z,1008.87
2017-10-16T02:26:02.803Z,1008.84
2017-10-16T02:27:13.199Z,1008.84
2017-10-16T02:28:23.281Z,1008.86
2017-10-16T02:29:33.681Z,1008.85
2017-10-16T02:30:43.758Z,1008.87
2017-10-16T02:31:54.156Z,1008.9
2017-10-16T02:33:04.571Z,1008.87
2017-10-16T02:34:14.971Z,1008.89
2017-10-16T02:35:25.415Z,1008.91
2017-10-16T02:36:34.822Z,1008.88
2017-10-16T02:37:45.229Z,1008.89
2017-10-16T02:38:55.657Z,1008.91
2017-10-16T02:40:06.057Z,1008.92
2017-10-16T02:41:16.483Z,1008.92
2017-10-16T02:42:26.883Z,1008.91
2017-10-16T02:43:37.294Z,1008.93
2017-10-16T02:44:47.692Z,1008.9
2017-10-16T02:45:58.076Z,1008.92
2017-10-16T02:47:07.818Z,1008.93
2017-10-16T02:48:17.896Z,1008.93
2017-10-16T02:49:28.297Z,1008.93
2017-10-16T02:50:38.704Z,1008.96
2017-10-16T02:51:49.104Z,1008.98
2017-10-16T02:52:59.589Z,1009.01
2017-10-16T02:54:09.985Z,1009.02
2017-10-16T02:55:20.065Z,1009.05
2017-10-16T02:56:30.448Z,1009.05
2017-10-16T02:57:40.849Z,1009.05
2017-10-16T02:58:50.646Z,1009.09
2017-10-16T03:00:00.722Z,1009.09
2017-10-16T03:01:11.114Z,1009.14
2017-10-16T03:02:21.510Z,1009.13
2017-10-16T03:33:45.869Z,1009.22
2017-10-16T03:34:55.943Z,1009.25
2017-10-16T03:36:06.002Z,1009.24
2017-10-16T03:37:16.053Z,1009.24
2017-10-16T03:38:26.437Z,1009.24
2017-10-16T03:39:36.857Z,1009.26
2017-10-16T03:40:47.249Z,1009.24
2017-10-16T03:41:57.319Z,1009.27
2017-10-16T03:43:07.733Z,1009.26
2017-10-16T03:44:18.129Z,1009.28
2017-10-16T03:45:28.196Z,1009.31
2017-10-16T03:46:38.594Z,1009.31
2017-10-16T03:47:48.987Z,1009.3
2017-10-16T03:48:59.382Z,1009.3
2017-10-16T03:50:09.791Z,1009.35
2017-10-16T03:51:19.869Z,1009.35
2017-10-16T03:52:29.926Z,1009.38
2017-10-16T03:53:39.994Z,1009.33
2017-10-16T03:54:50.388Z,1009.35
2017-10-16T03:56:00.466Z,1009.36
2017-10-16T03:57:10.915Z,1009.34
2017-10-16T03:58:20.978Z,1009.33
2017-10-16T03:59:31.363Z,1009.31
2017-10-16T04:00:41.780Z,1009.35
2017-10-16T04:01:51.532Z,1009.35
2017-10-16T04:03:01.964Z,1009.37
2017-10-16T04:04:12.371Z,1009.38
2017-10-16T04:05:22.768Z,1009.4
2017-10-16T04:06:33.171Z,1009.4
2017-10-16T04:07:43.564Z,1009.36
2017-10-16T04:08:53.954Z,1009.36
2017-10-16T04:10:04.389Z,1009.37
2017-10-16T04:11:14.786Z,1009.38
2017-10-16T04:12:25.187Z,1009.37
2017-10-16T04:13:35.592Z,1009.37
2017-10-16T04:14:45.990Z,1009.39
2017-10-16T04:15:56.379Z,1009.39
2017-10-16T04:17:06.457Z,1009.41
2017-10-16T04:18:16.530Z,1009.33
2017-10-16T04:19:26.925Z,1009.39
2017-10-16T04:20:37.039Z,1009.4
2017-10-16T04:21:46.800Z,1009.43
2017-10-16T04:22:57.207Z,1009.41
2017-10-16T04:24:07.608Z,1009.4
2017-10-16T04:25:18.034Z,1009.43
2017-10-16T04:26:28.472Z,1009.39
2017-10-16T04:27:38.543Z,1009.44
2017-10-16T04:28:48.932Z,1009.45
2017-10-16T04:29:59.343Z,1009.39
2017-10-16T04:31:09.425Z,1009.42
2017-10-16T04:32:19.877Z,1009.46
2017-10-16T04:33:30.259Z,1009.41
2017-10-16T04:34:40.320Z,1009.46
2017-10-16T04:35:50.391Z,1009.44
2017-10-16T04:37:00.464Z,1009.4
2017-10-16T04:38:10.523Z,1009.44
2017-10-16T04:39:20.598Z,1009.4
2017-10-16T04:40:30.989Z,1009.42
2017-10-16T04:41:41.058Z,1009.45
2017-10-16T04:42:51.461Z,1009.4
2017-10-16T04:44:01.549Z,1009.41
2017-10-16T04:45:11.947Z,1009.39
2017-10-16T04:46:22.020Z,1009.43
2017-10-16T04:47:32.410Z,1009.44
2017-10-16T04:48:42.811Z,1009.42
2017-10-16T04:49:52.553Z,1009.37
2017-10-16T04:51:02.985Z,1009.38
2017-10-16T04:52:13.057Z,1009.36
2017-10-16T04:53:23.467Z,1009.37
2017-10-16T04:54:33.559Z,1009.34
2017-10-16T04:55:43.983Z,1009.31
2017-10-16T04:56:54.378Z,1009.33
2017-10-16T04:58:04.783Z,1009.29
2017-10-16T04:59:15.232Z,1009.31
2017-10-16T05:00:24.971Z,1009.33
2017-10-16T05:01:35.382Z,1009.36
2017-10-16T05:02:45.774Z,1009.33
2017-10-16T05:03:55.856Z,1009.35
2017-10-16T05:05:05.608Z,1009.33
2017-10-16T05:06:16.032Z,1009.38
2017-10-16T05:07:26.419Z,1009.41
2017-10-16T05:08:36.497Z,1009.4
2017-10-16T05:09:46.913Z,1009.41
2017-10-16T05:10:57.337Z,1009.37
2017-10-16T05:12:07.403Z,1009.39
2017-10-16T05:13:17.814Z,1009.37
2017-10-16T05:14:27.552Z,1009.35
2017-10-16T05:15:37.959Z,1009.39
2017-10-16T05:16:48.374Z,1009.36
2017-10-16T05:17:58.443Z,1009.35
2017-10-16T05:19:08.821Z,1009.34
2017-10-16T05:20:19.230Z,1009.34
2017-10-16T05:21:29.641Z,1009.34
2017-10-16T05:22:39.714Z,1009.33
2017-10-16T05:23:50.141Z,1009.37
2017-10-16T05:25:00.591Z,1009.35
2017-10-16T05:26:10.998Z,1009.35
2017-10-16T05:27:21.396Z,1009.33
2017-10-16T05:28:31.777Z,1009.41
2017-10-16T05:29:42.170Z,1009.37
2017-10-16T05:30:52.595Z,1009.35
2017-10-16T05:32:03.890Z,1009.37
2017-10-16T05:33:14.283Z,1009.37
2017-10-16T05:34:24.676Z,1009.39
2017-10-16T05:35:34.072Z,1009.4
2017-10-16T05:36:44.459Z,1009.41
2017-10-16T05:37:54.527Z,1009.42
2017-10-16T05:39:04.937Z,1009.41
2017-10-16T05:40:15.339Z,1009.45
2017-10-16T05:41:25.769Z,1009.46
2017-10-16T05:42:36.246Z,1009.51
2017-10-16T05:43:46.663Z,1009.52
2017-10-16T05:44:57.059Z,1009.55
2017-10-16T05:46:07.449Z,1009.54
2017-10-16T05:47:17.869Z,1009.6
2017-10-16T05:48:27.610Z,1009.61
2017-10-16T05:49:38.013Z,1009.58
2017-10-16T05:50:48.419Z,1009.62
2017-10-16T05:51:59.366Z,1009.62
2017-10-16T05:53:09.781Z,1009.62
2017-10-16T05:54:20.240Z,1009.63
2017-10-16T05:55:29.985Z,1009.62
2017-10-16T05:56:40.073Z,1009.61
2017-10-16T05:57:50.466Z,1009.65
2017-10-16T05:59:00.864Z,1009.67
2017-10-16T06:00:11.279Z,1009.66
2017-10-16T06:01:21.677Z,1009.66
2017-10-16T06:02:31.740Z,1009.68
2017-10-16T06:03:42.136Z,1009.68
2017-10-16T06:04:52.537Z,1009.65
2017-10-16T06:06:02.958Z,1009.65
2017-10-16T06:07:13.026Z,1009.67
2017-10-16T06:08:23.422Z,1009.7
2017-10-16T06:09:33.815Z,1009.69
2017-10-16T06:10:44.218Z,1009.7
2017-10-16T06:11:54.673Z,1009.72
2017-10-16T06:13:04.418Z,1009.72
2017-10-16T06:14:14.840Z,1009.72
2017-10-16T06:15:24.925Z,1009.7
2017-10-16T06:16:35.350Z,1009.7
2017-10-16T06:17:45.821Z,1009.73
2017-10-16T06:18:56.223Z,1009.72
2017-10-16T06:20:05.975Z,1009.73
2017-10-16T06:21:16.413Z,1009.71
2017-10-16T06:22:26.842Z,1009.76
2017-10-16T06:23:37.314Z,1009.77
2017-10-16T06:24:47.741Z,1009.84
2017-10-16T06:25:58.143Z,1009.81
2017-10-16T06:27:08.210Z,1009.87
2017-10-16T06:28:18.612Z,1009.88
2017-10-16T06:29:28.997Z,1009.87
2017-10-16T06:30:39.387Z,1009.89
2017-10-16T06:31:49.790Z,1009.87
2017-10-16T06:33:00.188Z,1009.88
2017-10-16T06:34:10.597Z,1009.9
2017-10-16T06:35:20.324Z,1009.85
2017-10-16T06:36:30.403Z,1009.83
2017-10-16T06:37:40.806Z,1009.88
2017-10-16T06:38:50.894Z,1009.89
2017-10-16T06:40:01.310Z,1009.9
2017-10-16T06:41:11.782Z,1009.88
2017-10-16T06:42:21.860Z,1009.88
2017-10-16T06:43:32.254Z,1009.86
2017-10-16T06:44:42.688Z,1009.83
2017-10-16T06:45:52.779Z,1009.81
2017-10-16T06:47:02.868Z,1009.84
2017-10-16T06:48:13.270Z,1009.84
2017-10-16T06:49:23.686Z,1009.85
2017-10-16T06:50:34.079Z,1009.88
2017-10-16T06:51:44.169Z,1009.87
2017-10-16T06:52:54.635Z,1009.88
2017-10-16T06:54:05.034Z,1009.89
2017-10-16T06:55:15.452Z,1009.91
2017-10-16T06:56:25.859Z,1009.94
2017-10-16T06:57:35.948Z,1009.89
2017-10-16T06:58:46.387Z,1009.87
2017-10-16T06:59:56.789Z,1009.87
2017-10-16T07:01:07.187Z,1009.87
2017-10-16T07:02:17.597Z,1009.88
2017-10-16T07:03:28.016Z,1009.85
2017-10-16T07:04:38.464Z,1009.92
2017-10-16T07:05:48.538Z,1009.9
2017-10-16T07:06:58.950Z,1009.9
2017-10-16T07:08:09.028Z,1009.9
2017-10-16T07:09:19.100Z,1009.87
2017-10-16T07:10:29.236Z,1009.9
2017-10-16T07:11:39.692Z,1009.93
2017-10-16T07:12:50.114Z,1009.92
2017-10-16T07:14:00.531Z,1009.97
2017-10-16T07:15:10.947Z,1009.93
2017-10-16T07:16:21.363Z,1009.94
2017-10-16T07:17:31.447Z,1010.01
2017-10-16T07:18:41.525Z,1009.98
2017-10-16T07:19:52.005Z,1010.03
2017-10-16T07:21:02.396Z,1010.03
2017-10-16T07:22:12.852Z,1010.02
2017-10-16T07:23:23.277Z,1010.04
2017-10-16T07:24:33.341Z,1010.07
2017-10-16T07:25:43.636Z,1010.08
2017-10-16T07:26:53.714Z,1010.14
2017-10-16T07:28:04.123Z,1010.11
2017-10-16T07:29:14.515Z,1010.12
2017-10-16T07:30:24.659Z,1010.16
2017-10-16T07:31:34.766Z,1010.16
2017-10-16T07:32:45.169Z,1010.17
2017-10-16T07:33:55.258Z,1010.16
2017-10-16T07:35:05.653Z,1010.14
2017-10-16T07:36:16.159Z,1010.16
2017-10-16T07:37:26.261Z,1010.16
2017-10-16T07:38:36.661Z,1010.16
2017-10-16T07:39:47.096Z,1010.17
2017-10-16T07:40:57.519Z,1010.17
2017-10-16T07:42:07.938Z,1010.18
2017-10-16T07:43:17.681Z,1010.18
2017-10-16T07:44:28.123Z,1010.15
2017-10-16T07:45:38.528Z,1010.18
2017-10-16T07:46:48.932Z,1010.19
2017-10-16T07:47:59.402Z,1010.19
2017-10-16T07:49:09.478Z,1010.21
2017-10-16T07:50:20.408Z,1010.24
2017-10-16T07:51:30.494Z,1010.23
2017-10-16T07:52:41.103Z,1010.25
2017-10-16T07:53:51.653Z,1010.25
2017-10-16T07:55:02.158Z,1010.23
2017-10-16T07:56:12.232Z,1010.29
2017-10-16T07:57:22.322Z,1010.28
2017-10-16T07:58:32.730Z,1010.24
2017-10-16T07:59:42.880Z,1010.25
2017-10-16T08:00:52.615Z,1010.24
2017-10-16T08:02:02.802Z,1010.24
2017-10-16T08:03:13.322Z,1010.21
2017-10-16T08:04:23.808Z,1010.23
2017-10-16T08:05:34.332Z,1010.24
2017-10-16T08:06:44.726Z,1010.26
2017-10-16T08:07:55.160Z,1010.22
2017-10-16T08:09:05.244Z,1010.22
2017-10-16T08:10:15.329Z,1010.23
2017-10-16T08:11:25.416Z,1010.21
2017-10-16T08:12:35.514Z,1010.24
2017-10-16T08:13:45.603Z,1010.25
2017-10-16T08:14:56.033Z,1010.26
2017-10-16T08:16:06.460Z,1010.22
2017-10-16T08:17:17.060Z,1010.27
2017-10-16T08:18:27.468Z,1010.27
2017-10-16T08:19:37.882Z,1010.23
2017-10-16T08:20:48.307Z,1010.22
2017-10-16T08:21:58.428Z,1010.21
2017-10-16T08:23:08.880Z,1010.19
2017-10-16T08:24:19.358Z,1010.15
2017-10-16T08:25:29.817Z,1010.16
2017-10-16T08:26:40.231Z,1010.16
2017-10-16T08:27:50.638Z,1010.18
2017-10-16T08:29:01.098Z,1010.16
2017-10-16T08:30:11.205Z,1010.19
2017-10-16T08:31:21.694Z,1010.13
2017-10-16T08:32:32.114Z,1010.14
2017-10-16T08:33:42.532Z,1010.16
2017-10-16T08:34:53.029Z,1010.17
2017-10-16T08:36:03.444Z,1010.19
2017-10-16T08:37:13.183Z,1010.15
2017-10-16T08:38:24.471Z,1010.18
2017-10-16T08:39:34.894Z,1010.18
2017-10-16T08:40:45.372Z,1010.22
2017-10-16T08:41:55.827Z,1010.17
2017-10-16T08:43:06.257Z,1010.15
2017-10-16T08:44:16.341Z,1010.19
2017-10-16T08:45:26.441Z,1010.15
2017-10-16T08:46:37.080Z,1010.12
2017-10-16T08:47:47.494Z,1010.13
2017-10-16T08:48:57.924Z,1010.16
2017-10-16T08:50:08.025Z,1010.15
2017-10-16T08:51:18.447Z,1010.16
2017-10-16T08:52:28.596Z,1010.12
2017-10-16T08:53:39.026Z,1010.15
2017-10-16T08:54:48.459Z,1010.15
2017-10-16T08:55:58.552Z,1010.2
2017-10-16T08:57:08.626Z,1010.21
2017-10-16T08:58:19.091Z,1010.17
2017-10-16T08:59:29.504Z,1010.15
2017-10-16T09:00:39.582Z,1010.17
2017-10-16T09:01:49.674Z,1010.14
2017-10-16T09:03:00.078Z,1010.19
2017-10-16T09:04:10.537Z,1010.17
2017-10-16T09:05:20.952Z,1010.18
2017-10-16T09:06:31.380Z,1010.13
2017-10-16T09:07:41.794Z,1010.11
2017-10-16T09:08:51.891Z,1010.11
2017-10-16T09:10:02.311Z,1010.13
2017-10-16T09:11:12.738Z,1010.12
2017-10-16T09:12:23.161Z,1010.08
2017-10-16T09:13:33.583Z,1010.08
2017-10-16T09:14:44.009Z,1010.08
2017-10-16T09:15:54.535Z,1010.13
2017-10-16T09:17:04.602Z,1010.15
2017-10-16T09:18:14.357Z,1010.13
2017-10-16T09:19:24.788Z,1010.17
2017-10-16T09:20:35.207Z,1010.13
2017-10-16T09:21:45.682Z,1010.17
2017-10-16T09:22:56.088Z,1010.14
2017-10-16T09:24:06.490Z,1010.19
2017-10-16T09:25:16.923Z,1010.13
2017-10-16T09:26:27.021Z,1010.13
2017-10-16T09:27:37.493Z,1010.12
2017-10-16T09:28:47.955Z,1010.12
2017-10-16T09:29:58.039Z,1010.14
2017-10-16T09:31:08.466Z,1010.16
2017-10-16T09:32:18.910Z,1010.14
2017-10-16T09:33:28.982Z,1010.16
2017-10-16T09:34:38.742Z,1010.1
2017-10-16T09:35:48.839Z,1010.14
2017-10-16T09:36:59.326Z,1010.11
2017-10-16T09:38:09.738Z,1010.09
2017-10-16T09:39:20.208Z,1010.11
2017-10-16T09:40:30.309Z,1010.12
2017-10-16T09:41:40.393Z,1010.06
2017-10-16T09:42:50.785Z,1010.04
2017-10-16T09:44:01.212Z,1010.04
2017-10-16T09:45:11.615Z,1010.05
2017-10-16T09:46:21.707Z,1010.04
2017-10-16T09:47:31.461Z,1010.04
2017-10-16T09:48:41.877Z,1010.08
2017-10-16T09:49:52.292Z,1010.07
2017-10-16T09:51:02.369Z,1010.12
2017-10-16T09:52:12.770Z,1010.09
2017-10-16T09:53:22.860Z,1010.09
2017-10-16T09:54:33.256Z,1010.12
2017-10-16T09:55:43.660Z,1010.14
2017-10-16T09:56:53.730Z,1010.11
2017-10-16T09:58:03.483Z,1010.06
2017-10-16T09:59:12.916Z,1010.07
2017-10-16T10:00:23.332Z,1010.03
2017-10-16T10:01:33.733Z,1010.04
2017-10-16T10:02:44.194Z,1010.02
2017-10-16T10:03:54.268Z,1010.01
2017-10-16T10:05:04.341Z,1010
2017-10-16T10:06:14.752Z,1009.99
2017-10-16T10:07:24.842Z,1010
2017-10-16T10:08:34.949Z,1009.95
2017-10-16T10:09:45.379Z,1009.96
2017-10-16T10:10:55.810Z,1009.91
2017-10-16T10:12:05.896Z,1009.89
2017-10-16T10:13:16.303Z,1009.85
2017-10-16T10:14:27.566Z,1009.86
2017-10-16T10:15:37.985Z,1009.83
2017-10-16T10:16:48.084Z,1009.78
2017-10-16T10:17:58.575Z,1009.77
2017-10-16T10:19:09.024Z,1009.79
2017-10-16T10:20:19.498Z,1009.79
2017-10-16T10:21:29.588Z,1009.77
2017-10-16T10:22:39.654Z,1009.7
2017-10-16T10:23:50.090Z,1009.72
2017-10-16T10:25:00.504Z,1009.72
2017-10-16T10:26:10.951Z,1009.66
2017-10-16T10:27:21.399Z,1009.68
2017-10-16T10:28:31.808Z,1009.65
2017-10-16T10:29:42.236Z,1009.65
2017-10-16T10:30:52.633Z,1009.63
2017-10-16T10:32:02.704Z,1009.62
2017-10-16T10:33:12.480Z,1009.62
2017-10-16T10:34:22.878Z,1009.62
2017-10-16T10:35:33.313Z,1009.6
2017-10-16T10:36:43.737Z,1009.63
2017-10-16T10:37:54.154Z,1009.65
2017-10-16T10:39:04.572Z,1009.64
2017-10-16T10:40:14.997Z,1009.65
2017-10-16T10:41:25.441Z,1009.62
2017-10-16T10:42:35.862Z,1009.58
2017-10-16T10:43:46.317Z,1009.59
2017-10-16T10:44:56.089Z,1009.56
2017-10-16T10:46:06.512Z,1009.53
2017-10-16T10:47:16.609Z,1009.54
2017-10-16T10:48:26.715Z,1009.52
2017-10-16T10:49:36.859Z,1009.54
2017-10-16T10:50:46.940Z,1009.56
2017-10-16T10:51:57.011Z,1009.52
2017-10-16T10:53:07.432Z,1009.5
2017-10-16T10:54:17.532Z,1009.46
2017-10-16T10:55:27.674Z,1009.5
2017-10-16T10:56:37.737Z,1009.43
2017-10-16T10:57:47.819Z,1009.43
2017-10-16T10:58:57.576Z,1009.42
2017-10-16T11:00:08.005Z,1009.4
2017-10-16T11:01:18.158Z,1009.4
2017-10-16T11:02:28.574Z,1009.38
2017-10-16T11:03:38.648Z,1009.38
2017-10-16T11:04:48.755Z,1009.35
2017-10-16T11:05:59.164Z,1009.32
2017-10-16T11:07:09.578Z,1009.3
2017-10-16T11:08:19.689Z,1009.3
2017-10-16T11:09:29.776Z,1009.25
2017-10-16T11:10:40.179Z,1009.29
2017-10-16T11:11:51.372Z,1009.25
2017-10-16T11:13:01.797Z,1009.28
2017-10-16T11:14:12.212Z,1009.18
2017-10-16T11:15:22.698Z,1009.15
2017-10-16T11:16:33.083Z,1009.11
2017-10-16T11:17:43.165Z,1009.1
2017-10-16T11:18:53.584Z,1009.09
2017-10-16T11:20:03.343Z,1009.09
2017-10-16T11:21:13.772Z,1009.09
2017-10-16T11:22:24.190Z,1009.06
2017-10-16T11:23:34.608Z,1009.08
2017-10-16T11:24:45.023Z,1009.04
2017-10-16T11:25:55.441Z,1009.07
2017-10-16T11:27:05.905Z,1009.07
2017-10-16T11:28:16.316Z,1009.08
2017-10-16T11:29:26.732Z,1009.08
2017-10-16T11:30:37.153Z,1009.07
2017-10-16T11:31:47.242Z,1009.04
2017-10-16T11:32:57.317Z,1009.03
2017-10-16T11:34:07.387Z,1009.05
2017-10-16T11:35:17.824Z,1009.04
2017-10-16T11:36:27.916Z,1009.06
2017-10-16T11:37:38.322Z,1009.05
2017-10-16T11:38:48.740Z,1009.08
2017-10-16T11:39:59.146Z,1009.05
2017-10-16T11:41:09.248Z,1009
2017-10-16T11:42:19.651Z,1008.99
2017-10-16T11:43:30.074Z,1008.93
2017-10-16T11:44:40.533Z,1008.96
2017-10-16T11:45:50.941Z,1008.92
2017-10-16T11:47:01.048Z,1008.93
2017-10-16T11:48:11.124Z,1008.91
2017-10-16T11:49:21.554Z,1008.89
2017-10-16T11:50:32.022Z,1008.93
2017-10-16T11:51:42.101Z,1008.91
2017-10-16T11:52:52.188Z,1008.88
2017-10-16T11:54:02.274Z,1008.88
2017-10-16T11:55:12.684Z,1008.89
2017-10-16T11:56:22.803Z,1008.92
2017-10-16T11:57:33.221Z,1008.93
2017-10-16T11:58:43.644Z,1008.92
2017-10-16T11:59:54.054Z,1008.9
2017-10-16T12:01:04.465Z,1008.88
2017-10-16T12:02:15.110Z,1008.85
2017-10-16T12:03:25.198Z,1008.84
2017-10-16T12:04:35.618Z,1008.81
2017-10-16T12:05:46.035Z,1008.81
2017-10-16T12:06:56.462Z,1008.8
2017-10-16T12:08:06.952Z,1008.79
2017-10-16T12:09:17.389Z,1008.8
2017-10-16T12:10:27.829Z,1008.79
2017-10-16T12:11:38.232Z,1008.79
2017-10-16T12:12:48.661Z,1008.81
2017-10-16T12:13:58.410Z,1008.79
2017-10-16T12:15:08.847Z,1008.79
2017-10-16T12:16:18.952Z,1008.78
2017-10-16T12:17:28.696Z,1008.8
2017-10-16T12:18:39.120Z,1008.79
2017-10-16T12:19:49.291Z,1008.8
2017-10-16T12:20:59.721Z,1008.8
2017-10-16T12:22:10.035Z,1008.81
2017-10-16T12:23:20.481Z,1008.75
2017-10-16T12:24:30.570Z,1008.73
2017-10-16T12:25:40.994Z,1008.68
2017-10-16T12:26:51.092Z,1008.65
2017-10-16T12:28:01.503Z,1008.66
2017-10-16T12:29:11.926Z,1008.64
2017-10-16T12:30:22.375Z,1008.66
2017-10-16T12:31:32.760Z,1008.68
2017-10-16T12:32:43.182Z,1008.65
2017-10-16T12:33:53.596Z,1008.67
2017-10-16T12:35:04.039Z,1008.66
2017-10-16T12:36:14.474Z,1008.67
2017-10-16T12:37:24.950Z,1008.61
2017-10-16T12:38:35.372Z,1008.61
2017-10-16T12:39:45.472Z,1008.59
2017-10-16T12:40:55.944Z,1008.61
2017-10-16T12:42:06.377Z,1008.55
2017-10-16T12:43:16.108Z,1008.55
2017-10-16T12:44:26.520Z,1008.52
2017-10-16T12:45:36.616Z,1008.49
2017-10-16T12:46:46.372Z,1008.47
2017-10-16T12:47:56.451Z,1008.45
2017-10-16T12:49:06.934Z,1008.46
2017-10-16T12:50:17.012Z,1008.46
2017-10-16T12:51:26.869Z,1008.43
2017-10-16T12:52:37.285Z,1008.45
2017-10-16T12:53:47.393Z,1008.46
2017-10-16T12:54:57.186Z,1008.45
2017-10-16T12:56:07.606Z,1008.46
2017-10-16T12:57:17.698Z,1008.49
2017-10-16T12:58:28.101Z,1008.46
2017-10-16T12:59:38.517Z,1008.45
2017-10-16T13:00:48.931Z,1008.41
2017-10-16T13:01:59.400Z,1008.41
2017-10-16T13:03:09.831Z,1008.39
2017-10-16T13:04:20.259Z,1008.38
2017-10-16T13:05:30.684Z,1008.4
2017-10-16T13:06:40.853Z,1008.36
2017-10-16T13:07:51.268Z,1008.39
2017-10-16T13:09:01.354Z,1008.37
2017-10-16T13:10:11.761Z,1008.36
2017-10-16T13:11:22.182Z,1008.3
2017-10-16T13:12:32.649Z,1008.31
2017-10-16T13:13:43.436Z,1008.26
2017-10-16T13:14:53.859Z,1008.23
2017-10-16T13:16:04.291Z,1008.19
2017-10-16T13:17:14.691Z,1008.21
2017-10-16T13:18:25.111Z,1008.18
2017-10-16T13:19:35.554Z,1008.18
2017-10-16T13:20:45.602Z,1008.17
2017-10-16T13:21:56.020Z,1008.21
2017-10-16T13:23:06.451Z,1008.2
2017-10-16T13:24:16.930Z,1008.18
2017-10-16T13:25:27.032Z,1008.16
2017-10-16T13:26:37.450Z,1008.14
2017-10-16T13:27:47.864Z,1008.12
2017-10-16T13:28:58.285Z,1008.12
2017-10-16T13:30:08.434Z,1008.13
2017-10-16T13:31:18.856Z,1008.16
2017-10-16T13:32:29.716Z,1008.17
2017-10-16T13:33:40.142Z,1008.15
2017-10-16T13:34:50.248Z,1008.12
2017-10-16T13:36:00.659Z,1008.17
2017-10-16T13:37:11.091Z,1008.15
2017-10-16T13:38:21.519Z,1008.16
2017-10-16T13:39:31.948Z,1008.12
2017-10-16T13:40:41.366Z,1008.13
2017-10-16T13:41:51.474Z,1008.09
2017-10-16T13:43:01.882Z,1008.1
2017-10-16T13:44:12.296Z,1008.09
2017-10-16T13:45:22.713Z,1008.06
2017-10-16T13:46:33.164Z,1008.05
2017-10-16T13:47:43.322Z,1007.99
2017-10-16T13:48:53.396Z,1007.97
2017-10-16T13:50:03.837Z,1008.02
2017-10-16T13:51:14.271Z,1007.98
2017-10-16T13:52:24.703Z,1007.97
2017-10-16T13:53:35.189Z,1008
2017-10-16T13:54:45.268Z,1008.02
2017-10-16T13:55:55.366Z,1008.05
2017-10-16T13:57:05.794Z,1008.06
2017-10-16T13:58:16.219Z,1008.07
2017-10-16T13:59:26.649Z,1008.05
2017-10-16T14:00:36.773Z,1008.05
2017-10-16T14:01:47.209Z,1008.02
2017-10-16T14:02:57.635Z,1008.04
2017-10-16T14:04:07.766Z,1008
2017-10-16T14:05:18.220Z,1007.98
2017-10-16T14:06:28.325Z,1007.99
2017-10-16T14:07:38.748Z,1008.04
2017-10-16T14:08:48.837Z,1008.02
2017-10-16T14:09:59.310Z,1008
2017-10-16T14:11:09.734Z,1008.02
2017-10-16T14:12:20.188Z,1008.01
2017-10-16T14:13:30.600Z,1007.99
2017-10-16T14:14:40.392Z,1008.02
2017-10-16T14:15:50.858Z,1008.02
2017-10-16T14:17:01.342Z,1008.01
2017-10-16T14:18:11.770Z,1008.01
2017-10-16T14:19:21.853Z,1007.96
2017-10-16T14:20:31.944Z,1007.95
2017-10-16T14:21:42.934Z,1007.97
2017-10-16T14:22:53.112Z,1007.95
2017-10-16T14:24:03.229Z,1007.96
2017-10-16T14:25:13.461Z,1007.96
2017-10-16T14:26:23.242Z,1007.97
2017-10-16T14:27:33.684Z,1007.95
2017-10-16T14:28:44.167Z,1008
2017-10-16T14:29:54.591Z,1007.99
2017-10-16T14:31:05.083Z,1008.01
2017-10-16T14:32:15.516Z,1007.99
2017-10-16T14:33:25.923Z,1008.02
2017-10-16T14:34:37.106Z,1007.98
2017-10-16T14:35:47.507Z,1007.98
2017-10-16T14:36:57.917Z,1008
2017-10-16T14:38:08.358Z,1008.02
2017-10-16T14:39:18.792Z,1008.01
2017-10-16T14:40:29.268Z,1008.05
2017-10-16T14:41:39.689Z,1008.04
2017-10-16T14:42:50.103Z,1008.1
2017-10-16T14:44:00.191Z,1008.04